<?xml version='1.0' encoding='UTF-8'?><gpx version="1.1" creator="JPX - https://github.com/jenetics/jpx" xmlns="http://www.topografix.com/GPX/1/1"><trk><trkseg><trkpt lat="42.6942075" lon="12.7177104"><ele>501.0</ele><time>2026-04-10T13:36:52.785Z</time></trkpt><trkpt lat="42.6941729" lon="12.7176085"><ele>501.0</ele><time>2026-04-10T13:37:17.745Z</time></trkpt><trkpt lat="42.6941347" lon="12.7175116"><ele>501.0</ele><time>2026-04-10T13:37:39.745Z</time></trkpt><trkpt lat="42.694101" lon="12.7174219"><ele>501.0</ele><time>2026-04-10T13:37:44.745Z</time></trkpt><trkpt lat="42.6941032" lon="12.7173353"><ele>501.0</ele><time>2026-04-10T13:38:02.751Z</time></trkpt><trkpt lat="42.6940916" lon="12.7172501"><ele>501.0</ele><time>2026-04-10T13:38:16.745Z</time></trkpt><trkpt lat="42.694063" lon="12.7171582"><ele>501.0</ele><time>2026-04-10T13:38:44.744Z</time></trkpt><trkpt lat="42.694122" lon="12.7172178"><ele>501.0</ele><time>2026-04-10T13:39:28.745Z</time></trkpt><trkpt lat="42.6941414" lon="12.7173122"><ele>501.0</ele><time>2026-04-10T13:39:36.802Z</time></trkpt><trkpt lat="42.6941324" lon="12.7174113"><ele>501.0</ele><time>2026-04-10T13:39:43.744Z</time></trkpt><trkpt lat="42.6941261" lon="12.7175106"><ele>501.0</ele><time>2026-04-10T13:39:47.822Z</time></trkpt><trkpt lat="42.6941127" lon="12.7175967"><ele>501.0</ele><time>2026-04-10T13:39:52.745Z</time></trkpt><trkpt lat="42.6941375" lon="12.7176852"><ele>501.0</ele><time>2026-04-10T13:39:58.75Z</time></trkpt><trkpt lat="42.6941723" lon="12.7177598"><ele>501.0</ele><time>2026-04-10T13:40:04.745Z</time></trkpt><trkpt lat="42.6942141" lon="12.7178452"><ele>498.7142857142857</ele><time>2026-04-10T13:40:09.997Z</time></trkpt><trkpt lat="42.6942318" lon="12.7179351"><ele>496.42857142857144</ele><time>2026-04-10T13:40:15.496Z</time></trkpt><trkpt lat="42.6942423" lon="12.7180377"><ele>494.14285714285717</ele><time>2026-04-10T13:40:22.745Z</time></trkpt><trkpt lat="42.6942355" lon="12.718123"><ele>491.8571428571429</ele><time>2026-04-10T13:40:32.744Z</time></trkpt><trkpt lat="42.6942403" lon="12.7182128"><ele>489.57142857142856</ele><time>2026-04-10T13:40:44.745Z</time></trkpt><trkpt lat="42.6942408" lon="12.7182989"><ele>487.28571428571433</ele><time>2026-04-10T13:40:53.745Z</time></trkpt><trkpt lat="42.6942008" lon="12.7183824"><ele>485.00000000000006</ele><time>2026-04-10T13:41:00.745Z</time></trkpt><trkpt lat="42.6941571" lon="12.7184659"><ele>484.99999999999994</ele><time>2026-04-10T13:41:06.694Z</time></trkpt><trkpt lat="42.6941029" lon="12.7185237"><ele>485.0</ele><time>2026-04-10T13:41:12.745Z</time></trkpt><trkpt lat="42.6940453" lon="12.7185999"><ele>485.0</ele><time>2026-04-10T13:41:19.745Z</time></trkpt><trkpt lat="42.6939964" lon="12.7186652"><ele>485.0</ele><time>2026-04-10T13:41:24.737Z</time></trkpt><trkpt lat="42.6939362" lon="12.7187643"><ele>484.99999999999994</ele><time>2026-04-10T13:41:42.745Z</time></trkpt><trkpt lat="42.6938824" lon="12.7188403"><ele>485.0</ele><time>2026-04-10T13:41:48.745Z</time></trkpt><trkpt lat="42.6938511" lon="12.7189255"><ele>483.8571428571429</ele><time>2026-04-10T13:42:14.745Z</time></trkpt><trkpt lat="42.6937994" lon="12.7189759"><ele>482.7142857142857</ele><time>2026-04-10T13:42:19.745Z</time></trkpt><trkpt lat="42.693734" lon="12.7190049"><ele>481.57142857142856</ele><time>2026-04-10T13:42:37.745Z</time></trkpt><trkpt lat="42.6936717" lon="12.7189783"><ele>480.42857142857144</ele><time>2026-04-10T13:42:52.745Z</time></trkpt><trkpt lat="42.6936788" lon="12.7188843"><ele>479.2857142857142</ele><time>2026-04-10T13:43:17.817Z</time></trkpt><trkpt lat="42.6936918" lon="12.7187944"><ele>478.1428571428571</ele><time>2026-04-10T13:43:24.813Z</time></trkpt><trkpt lat="42.6936936" lon="12.7186824"><ele>477.0</ele><time>2026-04-10T13:43:53.745Z</time></trkpt><trkpt lat="42.6936565" lon="12.7186013"><ele>477.4285714285714</ele><time>2026-04-10T13:43:58.747Z</time></trkpt><trkpt lat="42.6936101" lon="12.718531"><ele>477.8571428571428</ele><time>2026-04-10T13:44:04.745Z</time></trkpt><trkpt lat="42.6935625" lon="12.7184484"><ele>478.2857142857143</ele><time>2026-04-10T13:44:12.745Z</time></trkpt><trkpt lat="42.693512" lon="12.718396"><ele>478.71428571428567</ele><time>2026-04-10T13:44:16.744Z</time></trkpt><trkpt lat="42.6934591" lon="12.7183414"><ele>479.1428571428571</ele><time>2026-04-10T13:44:21.745Z</time></trkpt><trkpt lat="42.6934133" lon="12.7182821"><ele>479.57142857142856</ele><time>2026-04-10T13:44:26.744Z</time></trkpt><trkpt lat="42.6933634" lon="12.718211"><ele>480.0</ele><time>2026-04-10T13:44:32.745Z</time></trkpt><trkpt lat="42.6933213" lon="12.7181358"><ele>480.0</ele><time>2026-04-10T13:44:39.746Z</time></trkpt><trkpt lat="42.6932932" lon="12.7180455"><ele>480.0</ele><time>2026-04-10T13:44:47.758Z</time></trkpt><trkpt lat="42.6932431" lon="12.7179782"><ele>480.0</ele><time>2026-04-10T13:44:53.745Z</time></trkpt><trkpt lat="42.6932084" lon="12.7178702"><ele>480.0</ele><time>2026-04-10T13:45:34.745Z</time></trkpt><trkpt lat="42.6931408" lon="12.7179103"><ele>480.0</ele><time>2026-04-10T13:46:17.745Z</time></trkpt><trkpt lat="42.6930785" lon="12.7179492"><ele>480.0</ele><time>2026-04-10T13:46:56.745Z</time></trkpt><trkpt lat="42.6930264" lon="12.7179008"><ele>480.0</ele><time>2026-04-10T13:47:06.745Z</time></trkpt><trkpt lat="42.6929595" lon="12.7178609"><ele>480.0</ele><time>2026-04-10T13:47:14.745Z</time></trkpt><trkpt lat="42.6928962" lon="12.7178191"><ele>480.0</ele><time>2026-04-10T13:47:24.745Z</time></trkpt><trkpt lat="42.69284" lon="12.7177682"><ele>480.0</ele><time>2026-04-10T13:48:27.745Z</time></trkpt><trkpt lat="42.692827" lon="12.7176682"><ele>480.0</ele><time>2026-04-10T13:48:32.744Z</time></trkpt><trkpt lat="42.6927731" lon="12.7176109"><ele>480.0</ele><time>2026-04-10T13:48:37.745Z</time></trkpt><trkpt lat="42.6927101" lon="12.7175577"><ele>480.0</ele><time>2026-04-10T13:48:42.693Z</time></trkpt><trkpt lat="42.6926485" lon="12.71754"><ele>480.0</ele><time>2026-04-10T13:48:49.745Z</time></trkpt><trkpt lat="42.69258" lon="12.7175485"><ele>481.0</ele><time>2026-04-10T13:48:54.745Z</time></trkpt><trkpt lat="42.6925182" lon="12.7175705"><ele>482.0</ele><time>2026-04-10T13:48:59.794Z</time></trkpt><trkpt lat="42.6924703" lon="12.7175076"><ele>483.0</ele><time>2026-04-10T13:49:07.745Z</time></trkpt><trkpt lat="42.6924001" lon="12.7174762"><ele>484.0</ele><time>2026-04-10T13:49:14.745Z</time></trkpt><trkpt lat="42.6923363" lon="12.7174193"><ele>485.0</ele><time>2026-04-10T13:49:18.745Z</time></trkpt><trkpt lat="42.6922862" lon="12.7173454"><ele>486.0</ele><time>2026-04-10T13:49:24.745Z</time></trkpt><trkpt lat="42.6922196" lon="12.7173358"><ele>487.0</ele><time>2026-04-10T13:49:33.744Z</time></trkpt><trkpt lat="42.6921528" lon="12.7173571"><ele>487.0</ele><time>2026-04-10T13:49:39.653Z</time></trkpt><trkpt lat="42.6920818" lon="12.717399"><ele>487.0</ele><time>2026-04-10T13:49:45.745Z</time></trkpt><trkpt lat="42.6920076" lon="12.7173751"><ele>487.0</ele><time>2026-04-10T13:49:51.692Z</time></trkpt><trkpt lat="42.6919434" lon="12.7173432"><ele>487.0</ele><time>2026-04-10T13:49:55.745Z</time></trkpt><trkpt lat="42.6918792" lon="12.7173075"><ele>487.0</ele><time>2026-04-10T13:50:00.744Z</time></trkpt><trkpt lat="42.691819" lon="12.7172822"><ele>487.0</ele><time>2026-04-10T13:50:05.73Z</time></trkpt><trkpt lat="42.6917486" lon="12.7172857"><ele>487.0</ele><time>2026-04-10T13:50:14.745Z</time></trkpt><trkpt lat="42.6916746" lon="12.717288"><ele>488.57142857142856</ele><time>2026-04-10T13:50:20.745Z</time></trkpt><trkpt lat="42.6916053" lon="12.7172461"><ele>490.1428571428571</ele><time>2026-04-10T13:50:25.763Z</time></trkpt><trkpt lat="42.6915474" lon="12.7171998"><ele>491.71428571428567</ele><time>2026-04-10T13:50:30.745Z</time></trkpt><trkpt lat="42.6914827" lon="12.7171919"><ele>493.2857142857143</ele><time>2026-04-10T13:50:37.745Z</time></trkpt><trkpt lat="42.6914111" lon="12.7171594"><ele>494.8571428571428</ele><time>2026-04-10T13:50:46.745Z</time></trkpt><trkpt lat="42.6913473" lon="12.7171112"><ele>496.4285714285714</ele><time>2026-04-10T13:50:51.745Z</time></trkpt><trkpt lat="42.6912827" lon="12.7170658"><ele>498.0</ele><time>2026-04-10T13:50:57.745Z</time></trkpt><trkpt lat="42.6912158" lon="12.7170434"><ele>498.0</ele><time>2026-04-10T13:51:03.745Z</time></trkpt><trkpt lat="42.6911554" lon="12.7170163"><ele>497.99999999999994</ele><time>2026-04-10T13:51:09.763Z</time></trkpt><trkpt lat="42.6910855" lon="12.7169951"><ele>498.0</ele><time>2026-04-10T13:51:18.744Z</time></trkpt><trkpt lat="42.6910207" lon="12.716979"><ele>498.0</ele><time>2026-04-10T13:51:23.745Z</time></trkpt><trkpt lat="42.6909655" lon="12.716936"><ele>497.99999999999994</ele><time>2026-04-10T13:51:28.745Z</time></trkpt><trkpt lat="42.6909059" lon="12.7169048"><ele>498.0</ele><time>2026-04-10T13:51:33.744Z</time></trkpt><trkpt lat="42.6908406" lon="12.7169138"><ele>498.0</ele><time>2026-04-10T13:51:38.745Z</time></trkpt><trkpt lat="42.6907754" lon="12.7169104"><ele>499.0</ele><time>2026-04-10T13:51:45.745Z</time></trkpt><trkpt lat="42.6907211" lon="12.7168497"><ele>499.99999999999994</ele><time>2026-04-10T13:51:50.745Z</time></trkpt><trkpt lat="42.6906621" lon="12.7168122"><ele>501.0</ele><time>2026-04-10T13:52:00.745Z</time></trkpt><trkpt lat="42.6906292" lon="12.7167383"><ele>502.0</ele><time>2026-04-10T13:52:07.732Z</time></trkpt><trkpt lat="42.6905534" lon="12.7166908"><ele>502.99999999999994</ele><time>2026-04-10T13:52:20.745Z</time></trkpt><trkpt lat="42.6904791" lon="12.7166831"><ele>504.0</ele><time>2026-04-10T13:52:29.745Z</time></trkpt><trkpt lat="42.6904174" lon="12.7166492"><ele>505.0</ele><time>2026-04-10T13:52:34.745Z</time></trkpt><trkpt lat="42.6903522" lon="12.7166129"><ele>505.0</ele><time>2026-04-10T13:52:39.744Z</time></trkpt><trkpt lat="42.6902901" lon="12.7165822"><ele>504.99999999999994</ele><time>2026-04-10T13:52:44.745Z</time></trkpt><trkpt lat="42.690227" lon="12.7165749"><ele>505.0</ele><time>2026-04-10T13:52:50.745Z</time></trkpt><trkpt lat="42.6901615" lon="12.7165888"><ele>505.0</ele><time>2026-04-10T13:52:56.745Z</time></trkpt><trkpt lat="42.6900969" lon="12.7165813"><ele>504.99999999999994</ele><time>2026-04-10T13:53:04.745Z</time></trkpt><trkpt lat="42.6900277" lon="12.7165725"><ele>505.0</ele><time>2026-04-10T13:53:10.745Z</time></trkpt><trkpt lat="42.6899538" lon="12.7165585"><ele>505.0</ele><time>2026-04-10T13:53:17.732Z</time></trkpt><trkpt lat="42.6898913" lon="12.7165385"><ele>506.57142857142856</ele><time>2026-04-10T13:53:22.748Z</time></trkpt><trkpt lat="42.6898232" lon="12.7165065"><ele>508.1428571428571</ele><time>2026-04-10T13:53:28.744Z</time></trkpt><trkpt lat="42.6897561" lon="12.7164661"><ele>509.71428571428567</ele><time>2026-04-10T13:53:34.697Z</time></trkpt><trkpt lat="42.6897205" lon="12.7163927"><ele>511.2857142857142</ele><time>2026-04-10T13:53:40.674Z</time></trkpt><trkpt lat="42.6896801" lon="12.7163262"><ele>512.8571428571429</ele><time>2026-04-10T13:53:48.697Z</time></trkpt><trkpt lat="42.6896152" lon="12.7163207"><ele>514.4285714285713</ele><time>2026-04-10T13:53:56.745Z</time></trkpt><trkpt lat="42.6895517" lon="12.7162958"><ele>516.0</ele><time>2026-04-10T13:54:01.745Z</time></trkpt><trkpt lat="42.6894944" lon="12.7162518"><ele>515.9999999999999</ele><time>2026-04-10T13:54:06.745Z</time></trkpt><trkpt lat="42.6894292" lon="12.7162234"><ele>516.0</ele><time>2026-04-10T13:54:12.745Z</time></trkpt><trkpt lat="42.6893664" lon="12.7161762"><ele>516.0</ele><time>2026-04-10T13:54:19.749Z</time></trkpt><trkpt lat="42.689296" lon="12.7161572"><ele>516.0</ele><time>2026-04-10T13:54:25.744Z</time></trkpt><trkpt lat="42.6892278" lon="12.7161652"><ele>516.0</ele><time>2026-04-10T13:54:30.745Z</time></trkpt><trkpt lat="42.689161" lon="12.7161785"><ele>515.9999999999999</ele><time>2026-04-10T13:54:36.745Z</time></trkpt><trkpt lat="42.6890963" lon="12.7161951"><ele>516.0</ele><time>2026-04-10T13:54:42.745Z</time></trkpt><trkpt lat="42.6890242" lon="12.7161847"><ele>517.9999999999999</ele><time>2026-04-10T13:54:48.712Z</time></trkpt><trkpt lat="42.6889506" lon="12.716181"><ele>520.0</ele><time>2026-04-10T13:55:07.745Z</time></trkpt><trkpt lat="42.6888855" lon="12.7161868"><ele>522.0</ele><time>2026-04-10T13:55:12.745Z</time></trkpt><trkpt lat="42.6888138" lon="12.7161672"><ele>524.0</ele><time>2026-04-10T13:55:18.744Z</time></trkpt><trkpt lat="42.6887694" lon="12.7161031"><ele>526.0</ele><time>2026-04-10T13:55:23.745Z</time></trkpt><trkpt lat="42.6887185" lon="12.7160377"><ele>527.9999999999999</ele><time>2026-04-10T13:55:30.745Z</time></trkpt><trkpt lat="42.6886496" lon="12.7160066"><ele>530.0</ele><time>2026-04-10T13:55:36.744Z</time></trkpt><trkpt lat="42.6885828" lon="12.7159607"><ele>529.9999999999999</ele><time>2026-04-10T13:55:43.744Z</time></trkpt><trkpt lat="42.6885182" lon="12.7159394"><ele>530.0</ele><time>2026-04-10T13:55:51.936Z</time></trkpt><trkpt lat="42.688449" lon="12.7159422"><ele>530.0</ele><time>2026-04-10T13:55:57.745Z</time></trkpt><trkpt lat="42.6883794" lon="12.7159384"><ele>530.0</ele><time>2026-04-10T13:56:06.745Z</time></trkpt><trkpt lat="42.6884127" lon="12.7160276"><ele>530.0</ele><time>2026-04-10T13:56:17.745Z</time></trkpt><trkpt lat="42.6884784" lon="12.7160746"><ele>529.9999999999999</ele><time>2026-04-10T13:56:22.745Z</time></trkpt><trkpt lat="42.6885413" lon="12.7160973"><ele>530.0</ele><time>2026-04-10T13:56:26.736Z</time></trkpt><trkpt lat="42.6886167" lon="12.7160979"><ele>529.9999999999999</ele><time>2026-04-10T13:56:32.744Z</time></trkpt><trkpt lat="42.6886783" lon="12.7161254"><ele>530.0</ele><time>2026-04-10T13:56:38.744Z</time></trkpt><trkpt lat="42.6887407" lon="12.7161607"><ele>530.0</ele><time>2026-04-10T13:56:43.745Z</time></trkpt><trkpt lat="42.6887825" lon="12.716225"><ele>530.0</ele><time>2026-04-10T13:56:49.745Z</time></trkpt><trkpt lat="42.6888421" lon="12.7162862"><ele>530.0</ele><time>2026-04-10T13:57:09.745Z</time></trkpt><trkpt lat="42.6889075" lon="12.7163272"><ele>529.9999999999999</ele><time>2026-04-10T13:57:12.745Z</time></trkpt><trkpt lat="42.6889779" lon="12.7163189"><ele>530.0</ele><time>2026-04-10T13:57:25.717Z</time></trkpt><trkpt lat="42.6890394" lon="12.7162956"><ele>529.9999999999999</ele><time>2026-04-10T13:57:28.652Z</time></trkpt><trkpt lat="42.6891062" lon="12.7162963"><ele>530.0</ele><time>2026-04-10T13:57:32.746Z</time></trkpt><trkpt lat="42.6891791" lon="12.7163154"><ele>530.0</ele><time>2026-04-10T13:57:37.696Z</time></trkpt><trkpt lat="42.6892393" lon="12.7163483"><ele>530.0</ele><time>2026-04-10T13:57:42.745Z</time></trkpt><trkpt lat="42.6893009" lon="12.7163899"><ele>530.0</ele><time>2026-04-10T13:57:49.745Z</time></trkpt><trkpt lat="42.6893582" lon="12.7164313"><ele>529.9999999999999</ele><time>2026-04-10T13:58:08.745Z</time></trkpt><trkpt lat="42.6894272" lon="12.7164317"><ele>530.0</ele><time>2026-04-10T13:58:13.716Z</time></trkpt><trkpt lat="42.6894891" lon="12.7163961"><ele>527.9999999999999</ele><time>2026-04-10T13:58:18.745Z</time></trkpt><trkpt lat="42.6895602" lon="12.7164238"><ele>526.0</ele><time>2026-04-10T13:58:30.744Z</time></trkpt><trkpt lat="42.6896145" lon="12.7164763"><ele>524.0</ele><time>2026-04-10T13:58:34.745Z</time></trkpt><trkpt lat="42.6896794" lon="12.7165375"><ele>522.0</ele><time>2026-04-10T13:58:47.672Z</time></trkpt><trkpt lat="42.6897372" lon="12.7165806"><ele>520.0</ele><time>2026-04-10T13:58:52.745Z</time></trkpt><trkpt lat="42.6898024" lon="12.7165942"><ele>517.9999999999999</ele><time>2026-04-10T13:58:59.745Z</time></trkpt><trkpt lat="42.6898657" lon="12.7166398"><ele>516.0</ele><time>2026-04-10T13:59:05.745Z</time></trkpt><trkpt lat="42.6899307" lon="12.7166749"><ele>515.9999999999999</ele><time>2026-04-10T13:59:11.654Z</time></trkpt><trkpt lat="42.6899953" lon="12.7167254"><ele>516.0</ele><time>2026-04-10T13:59:16.745Z</time></trkpt><trkpt lat="42.6900409" lon="12.7168061"><ele>516.0</ele><time>2026-04-10T13:59:21.744Z</time></trkpt><trkpt lat="42.6901111" lon="12.7168177"><ele>516.0</ele><time>2026-04-10T13:59:27.745Z</time></trkpt><trkpt lat="42.6901822" lon="12.7168154"><ele>516.0</ele><time>2026-04-10T13:59:32.803Z</time></trkpt><trkpt lat="42.690235" lon="12.7168783"><ele>515.9999999999999</ele><time>2026-04-10T13:59:38.745Z</time></trkpt><trkpt lat="42.6902839" lon="12.716939"><ele>516.0</ele><time>2026-04-10T13:59:44.697Z</time></trkpt><trkpt lat="42.6903384" lon="12.7169849"><ele>515.9999999999999</ele><time>2026-04-10T13:59:51.745Z</time></trkpt><trkpt lat="42.6903874" lon="12.716928"><ele>516.0</ele><time>2026-04-10T14:00:15.745Z</time></trkpt><trkpt lat="42.6904612" lon="12.7169202"><ele>516.0</ele><time>2026-04-10T14:00:19.745Z</time></trkpt><trkpt lat="42.6905299" lon="12.7169174"><ele>516.0</ele><time>2026-04-10T14:00:27.745Z</time></trkpt><trkpt lat="42.6905983" lon="12.7169339"><ele>516.0</ele><time>2026-04-10T14:00:35.745Z</time></trkpt><trkpt lat="42.6906465" lon="12.7169952"><ele>515.9999999999999</ele><time>2026-04-10T14:00:43.744Z</time></trkpt><trkpt lat="42.6906838" lon="12.717072"><ele>516.0</ele><time>2026-04-10T14:00:54.716Z</time></trkpt><trkpt lat="42.6907515" lon="12.7170927"><ele>515.9999999999999</ele><time>2026-04-10T14:01:07.745Z</time></trkpt><trkpt lat="42.6908168" lon="12.7170907"><ele>516.0</ele><time>2026-04-10T14:01:13.756Z</time></trkpt><trkpt lat="42.6908734" lon="12.7171498"><ele>516.0</ele><time>2026-04-10T14:01:19.78Z</time></trkpt><trkpt lat="42.6909354" lon="12.7171741"><ele>516.0</ele><time>2026-04-10T14:01:25.745Z</time></trkpt><trkpt lat="42.6910012" lon="12.7172069"><ele>516.0</ele><time>2026-04-10T14:01:31.745Z</time></trkpt><trkpt lat="42.6910712" lon="12.7172361"><ele>515.9999999999999</ele><time>2026-04-10T14:01:41.745Z</time></trkpt><trkpt lat="42.691138" lon="12.7172363"><ele>516.0</ele><time>2026-04-10T14:01:46.745Z</time></trkpt><trkpt lat="42.6912047" lon="12.7172238"><ele>513.4285714285713</ele><time>2026-04-10T14:01:53.744Z</time></trkpt><trkpt lat="42.6912707" lon="12.7172195"><ele>510.85714285714283</ele><time>2026-04-10T14:02:00.657Z</time></trkpt><trkpt lat="42.6913224" lon="12.7172814"><ele>508.2857142857142</ele><time>2026-04-10T14:02:06.744Z</time></trkpt><trkpt lat="42.6913559" lon="12.717357"><ele>505.71428571428567</ele><time>2026-04-10T14:02:12.745Z</time></trkpt><trkpt lat="42.6913682" lon="12.7174487"><ele>503.1428571428571</ele><time>2026-04-10T14:02:57.745Z</time></trkpt><trkpt lat="42.691436" lon="12.7174547"><ele>500.57142857142856</ele><time>2026-04-10T14:03:03.716Z</time></trkpt><trkpt lat="42.6914998" lon="12.7174474"><ele>498.0</ele><time>2026-04-10T14:03:11.745Z</time></trkpt><trkpt lat="42.6915642" lon="12.7174381"><ele>498.0</ele><time>2026-04-10T14:03:21.745Z</time></trkpt><trkpt lat="42.6916274" lon="12.7174381"><ele>497.99999999999994</ele><time>2026-04-10T14:03:29.745Z</time></trkpt><trkpt lat="42.691691" lon="12.7174497"><ele>498.0</ele><time>2026-04-10T14:03:34.745Z</time></trkpt><trkpt lat="42.6917591" lon="12.7174522"><ele>498.0</ele><time>2026-04-10T14:03:40.745Z</time></trkpt><trkpt lat="42.6918063" lon="12.7175103"><ele>497.99999999999994</ele><time>2026-04-10T14:03:47.745Z</time></trkpt><trkpt lat="42.6918615" lon="12.7175707"><ele>498.0</ele><time>2026-04-10T14:03:54.691Z</time></trkpt><trkpt lat="42.6919358" lon="12.7175714"><ele>498.0</ele><time>2026-04-10T14:03:59.745Z</time></trkpt><trkpt lat="42.6920089" lon="12.7175899"><ele>499.1428571428571</ele><time>2026-04-10T14:04:05.697Z</time></trkpt><trkpt lat="42.6920736" lon="12.7176061"><ele>500.2857142857142</ele><time>2026-04-10T14:04:11.745Z</time></trkpt><trkpt lat="42.6921372" lon="12.717622"><ele>501.42857142857144</ele><time>2026-04-10T14:04:17.745Z</time></trkpt><trkpt lat="42.6921928" lon="12.7176631"><ele>502.57142857142856</ele><time>2026-04-10T14:04:23.694Z</time></trkpt><trkpt lat="42.6922546" lon="12.7177002"><ele>503.7142857142857</ele><time>2026-04-10T14:04:29.655Z</time></trkpt><trkpt lat="42.6923261" lon="12.7177252"><ele>504.8571428571429</ele><time>2026-04-10T14:04:35.697Z</time></trkpt><trkpt lat="42.6923925" lon="12.7177477"><ele>506.00000000000006</ele><time>2026-04-10T14:04:52.745Z</time></trkpt><trkpt lat="42.6924652" lon="12.7177562"><ele>506.00000000000006</ele><time>2026-04-10T14:04:55.745Z</time></trkpt><trkpt lat="42.6925323" lon="12.7177982"><ele>506.0</ele><time>2026-04-10T14:05:03.745Z</time></trkpt><trkpt lat="42.6925873" lon="12.7178511"><ele>506.00000000000006</ele><time>2026-04-10T14:05:09.755Z</time></trkpt><trkpt lat="42.6926445" lon="12.717914"><ele>506.00000000000006</ele><time>2026-04-10T14:05:14.745Z</time></trkpt><trkpt lat="42.6927004" lon="12.7179614"><ele>506.0</ele><time>2026-04-10T14:05:20.745Z</time></trkpt><trkpt lat="42.6927523" lon="12.7180113"><ele>506.00000000000006</ele><time>2026-04-10T14:05:26.745Z</time></trkpt><trkpt lat="42.692825" lon="12.7180607"><ele>506.00000000000006</ele><time>2026-04-10T14:05:32.745Z</time></trkpt><trkpt lat="42.6928899" lon="12.7180892"><ele>502.28571428571433</ele><time>2026-04-10T14:05:37.745Z</time></trkpt><trkpt lat="42.6929615" lon="12.7180956"><ele>498.57142857142856</ele><time>2026-04-10T14:05:43.731Z</time></trkpt><trkpt lat="42.6930215" lon="12.7181274"><ele>494.8571428571429</ele><time>2026-04-10T14:05:48.745Z</time></trkpt><trkpt lat="42.6930909" lon="12.7181649"><ele>491.14285714285717</ele><time>2026-04-10T14:05:54.745Z</time></trkpt><trkpt lat="42.6931608" lon="12.7181805"><ele>487.42857142857144</ele><time>2026-04-10T14:05:59.745Z</time></trkpt><trkpt lat="42.6931972" lon="12.7182541"><ele>483.7142857142857</ele><time>2026-04-10T14:06:07.744Z</time></trkpt><trkpt lat="42.6931695" lon="12.7183406"><ele>480.0</ele><time>2026-04-10T14:06:15.745Z</time></trkpt><trkpt lat="42.6931166" lon="12.7184043"><ele>480.0</ele><time>2026-04-10T14:06:45.744Z</time></trkpt><trkpt lat="42.6931943" lon="12.7184197"><ele>480.0</ele><time>2026-04-10T14:07:10.745Z</time></trkpt><trkpt lat="42.693256" lon="12.7183469"><ele>480.0</ele><time>2026-04-10T14:07:13.745Z</time></trkpt><trkpt lat="42.6933212" lon="12.7183387"><ele>480.0</ele><time>2026-04-10T14:07:18.745Z</time></trkpt><trkpt lat="42.693346" lon="12.7184192"><ele>480.0</ele><time>2026-04-10T14:07:27.816Z</time></trkpt><trkpt lat="42.6933377" lon="12.7185114"><ele>480.0</ele><time>2026-04-10T14:07:34.745Z</time></trkpt><trkpt lat="42.693352" lon="12.7185997"><ele>480.0</ele><time>2026-04-10T14:07:39.745Z</time></trkpt><trkpt lat="42.6933954" lon="12.7186745"><ele>481.0</ele><time>2026-04-10T14:07:44.807Z</time></trkpt><trkpt lat="42.6934301" lon="12.7187788"><ele>482.0</ele><time>2026-04-10T14:08:27.745Z</time></trkpt><trkpt lat="42.6934854" lon="12.7188466"><ele>483.0</ele><time>2026-04-10T14:08:32.745Z</time></trkpt><trkpt lat="42.6935159" lon="12.7189274"><ele>484.0</ele><time>2026-04-10T14:08:37.745Z</time></trkpt><trkpt lat="42.6935243" lon="12.7190187"><ele>485.0</ele><time>2026-04-10T14:08:42.745Z</time></trkpt><trkpt lat="42.6935117" lon="12.7191141"><ele>486.0</ele><time>2026-04-10T14:08:47.744Z</time></trkpt><trkpt lat="42.6935195" lon="12.7192001"><ele>487.0</ele><time>2026-04-10T14:08:53.811Z</time></trkpt><trkpt lat="42.693582" lon="12.7192578"><ele>485.57142857142856</ele><time>2026-04-10T14:09:10.745Z</time></trkpt><trkpt lat="42.6936544" lon="12.7192199"><ele>484.1428571428571</ele><time>2026-04-10T14:09:38.745Z</time></trkpt><trkpt lat="42.6937112" lon="12.7191763"><ele>482.71428571428567</ele><time>2026-04-10T14:09:45.697Z</time></trkpt><trkpt lat="42.6937831" lon="12.7191427"><ele>481.2857142857143</ele><time>2026-04-10T14:09:59.745Z</time></trkpt><trkpt lat="42.6938249" lon="12.7192181"><ele>479.8571428571428</ele><time>2026-04-10T14:10:10.71Z</time></trkpt><trkpt lat="42.6938671" lon="12.7192856"><ele>478.4285714285714</ele><time>2026-04-10T14:10:27.745Z</time></trkpt><trkpt lat="42.6939132" lon="12.7192234"><ele>477.0</ele><time>2026-04-10T14:10:40.745Z</time></trkpt><trkpt lat="42.6939529" lon="12.7191553"><ele>477.0</ele><time>2026-04-10T14:10:47.745Z</time></trkpt><trkpt lat="42.6940222" lon="12.7190726"><ele>476.99999999999994</ele><time>2026-04-10T14:11:19.708Z</time></trkpt><trkpt lat="42.6940354" lon="12.7189757"><ele>477.0</ele><time>2026-04-10T14:11:24.744Z</time></trkpt><trkpt lat="42.6940501" lon="12.7188891"><ele>477.0</ele><time>2026-04-10T14:11:29.745Z</time></trkpt><trkpt lat="42.694059" lon="12.718796"><ele>476.99999999999994</ele><time>2026-04-10T14:11:37.745Z</time></trkpt><trkpt lat="42.6940823" lon="12.7187113"><ele>477.0</ele><time>2026-04-10T14:11:44.745Z</time></trkpt><trkpt lat="42.6941238" lon="12.7186445"><ele>477.0</ele><time>2026-04-10T14:11:50.745Z</time></trkpt><trkpt lat="42.6941546" lon="12.7185682"><ele>478.1428571428571</ele><time>2026-04-10T14:11:58.675Z</time></trkpt><trkpt lat="42.6941843" lon="12.718492"><ele>479.2857142857142</ele><time>2026-04-10T14:12:13.745Z</time></trkpt><trkpt lat="42.6942345" lon="12.7184145"><ele>480.42857142857144</ele><time>2026-04-10T14:12:19.745Z</time></trkpt><trkpt lat="42.6942834" lon="12.7183569"><ele>481.57142857142856</ele><time>2026-04-10T14:12:25.821Z</time></trkpt><trkpt lat="42.6943261" lon="12.7182836"><ele>482.7142857142857</ele><time>2026-04-10T14:12:32.745Z</time></trkpt><trkpt lat="42.6942972" lon="12.7181955"><ele>483.8571428571429</ele><time>2026-04-10T14:12:39.744Z</time></trkpt><trkpt lat="42.6943107" lon="12.718106"><ele>485.00000000000006</ele><time>2026-04-10T14:12:48.702Z</time></trkpt><trkpt lat="42.6943184" lon="12.7180163"><ele>485.0</ele><time>2026-04-10T14:13:03.277Z</time></trkpt><trkpt lat="42.6943075" lon="12.7179295"><ele>485.0</ele><time>2026-04-10T14:13:08.817Z</time></trkpt></trkseg></trk></gpx>